x

9441102 - Westport, Wa (wptw1) Weather Station

2:30pm - Thu 23rd Feb 2017 All times are PST. -8 hours from GMT.

  • Wind
    9mph, 11mph gusts
  • Sea Temp 48°f
  • 空気 Temp 43°f
  • Sea Pressure 1023.8mb
  • 9441102 - Westport, Wa
  • 9441102 - Westport, Wa

More Historic Weather Station data

Upgrade to MSW Pro to gain access to the past 30 days of data for over 8000 Wavebouys and Weather Stations around the globe.

Join Pro

Comparision Forecast

View Surf forecast
   
Thu 02/23 2:30pm 9 11 mph 1023.8mb 48f 43f
2:24pm 6 9 mph 1023.8mb 48f 43f
2:18pm 8 10 mph 1023.9mb 48f 42f
2:12pm 9 11 mph 1023.9mb 48f 42f
2:06pm 8 10 mph 1023.9mb 48f 43f
2:00pm 8 11 mph 1024mb 48f 43f
1:36pm 8 10 mph 1024.1mb 48f 43f
1:30pm 8 11 mph 1024.1mb 48f 42f
1:24pm 7 9 mph 1024.2mb 48f 42f
1:18pm 8 11 mph 1024.3mb 48f 43f
1:12pm 7 11 mph 1024.3mb 48f 42f
1:06pm 7 9 mph 1024.4mb 48f 42f
1:00pm 7 9 mph 1024.4mb 48f 42f
12:36pm 7 10 mph 1024.7mb 49f 43f
12:30pm 8 10 mph 1024.7mb 49f 42f
12:24pm 6 8 mph 1024.7mb 49f 42f
12:18pm 8 10 mph 1024.7mb 49f 42f
12:12pm 6 8 mph 1024.7mb 49f 43f
12:06pm 5 8 mph 1024.8mb 49f 42f
12:00pm 6 9 mph 1024.8mb 49f 43f
11:36am 2 5 mph 1025mb 49f 48f
11:30am 3 5 mph 1025.1mb 49f 47f
11:24am 1 3 mph 1025.1mb 49f 47f
11:18am  -  5 mph 1025.1mb 49f 45f
11:12am 3 5 mph 1025.1mb 49f 44f
11:06am  -  5 mph 1025.1mb 49f 41f
11:00am 3 6 mph 1025.1mb 49f 42f
10:36am 6 7 mph 1025.1mb 49f 39f
10:30am 6 7 mph 1025.1mb 49f 38f
10:24am 6 7 mph 1025.1mb 49f 38f
10:18am 6 7 mph 1025.1mb 49f 39f
10:12am 6 8 mph 1025.1mb 49f 39f
10:06am 6 8 mph 1025.1mb 49f 40f
10:00am 5 7 mph 1025.1mb 49f 41f
9:36am 1 3 mph 1024.9mb 49f 40f
9:30am 2 3 mph 1024.9mb 49f 40f
9:24am 2 3 mph 1024.8mb 49f 40f
9:18am 1 3 mph 1024.8mb 49f 39f
9:12am 2 3 mph 1024.8mb 49f 38f
9:06am 2 3 mph 1024.7mb 49f 38f
9:00am 2 5 mph 1024.7mb 49f 38f
8:36am 2 5 mph 1024.6mb 48f 36f
8:30am 3 5 mph 1024.6mb 48f 35f
8:24am 3 7 mph 1024.6mb 48f 35f
8:18am 6 7 mph 1024.6mb 48f 35f
8:12am 7
mph
1024.6mb 48f 35f
8:06am 6
mph
1024.5mb 48f 35f
8:00am 6 7 mph 1024.5mb 48f 35f
7:36am 6 7 mph 1024.4mb 49f 34f
7:30am 7 8 mph 1024.4mb 49f 34f
7:24am 7 8 mph 1024.3mb 49f 34f
7:18am 6 7 mph 1024.2mb 49f 34f
7:12am 5 6 mph 1024.2mb 49f 33f
7:06am 6 8 mph 1024.1mb 49f 34f
7:00am 8 9 mph 1024.1mb 49f 33f
6:36am 6 7 mph 1024mb 48f 33f
6:30am 6
mph
1023.9mb 48f 33f
6:24am 6 7 mph 1023.9mb 48f 34f
6:18am 6 7 mph 1023.9mb 48f 34f
6:12am 6 7 mph 1023.8mb 48f 34f
6:06am 7
mph
1023.8mb 48f 34f
6:00am 7 8 mph 1023.8mb 48f 34f
5:36am 6 7 mph 1023.8mb 48f 34f
5:30am 6 8 mph 1023.8mb 48f 34f
5:24am 7 8 mph 1023.8mb 48f 34f
5:18am 7 9 mph 1023.9mb 48f 34f
5:12am 6 7 mph 1023.8mb 48f 34f
5:06am 6 7 mph 1023.8mb 48f 34f
5:00am 6
mph
1023.8mb 48f 34f
4:36am 3 5 mph 1023.7mb 49f 34f
4:30am 5
mph
1023.7mb 49f 35f
4:24am 5
mph
1023.8mb 49f 35f
4:18am 5 6 mph 1023.8mb 49f 35f
4:12am 6 8 mph 1023.7mb 49f 35f
4:06am 7 8 mph 1023.6mb 49f 35f
4:00am 7
mph
1023.6mb 49f 35f
3:36am 5 6 mph 1023.7mb 49f 35f
3:30am 6
mph
1023.7mb 49f 35f
3:24am 6
mph
1023.7mb 48f 35f
3:18am 5
mph
1023.7mb 48f 35f
3:12am 3
mph
1023.7mb 49f 36f
3:06am 3 5 mph 1023.6mb 48f 36f
3:00am 5
mph
1023.6mb 49f 35f
2:36am 6 7 mph 1023.4mb 49f 36f
2:30am 6 7 mph 1023.4mb 49f 35f
2:24am 6 7 mph 1023.4mb 49f 36f
2:18am 6 7 mph 1023.4mb 49f 35f
2:12am 6 7 mph 1023.5mb 48f 35f
2:06am 7
mph
1023.5mb 49f 35f
2:00am 6 7 mph 1023.5mb 49f 36f
Wed 02/22 2:54pm 9 13 mph 1022.7mb 47f 42f
2:48pm 9 14 mph 1022.6mb 47f 42f
1:54pm 8 10 mph 1022.5mb 48f 42f
1:48pm 7 9 mph 1022.6mb 48f 42f
12:54pm 5 7 mph 1022.7mb 48f 41f
12:48pm 5 6 mph 1022.7mb 48f 41f
11:54am 11 13 mph 1023mb 48f 40f
11:48am 11 14 mph 1023.1mb 49f 40f
10:54am 17 20 mph 1023.3mb 49f 40f
10:48am 17 20 mph 1023.3mb 49f 40f
9:54am 2 5 mph 1023.2mb 49f 46f
9:48am 1 5 mph 1023.2mb 49f 46f
8:54am 5 6 mph 1022.9mb 49f 44f
8:48am 5 7 mph 1022.9mb 49f 44f
7:54am 2
mph
1022.9mb 49f 39f
7:48am 2
mph
1022.9mb 49f 39f
6:54am 10 15 mph 1022.6mb 49f 39f
6:48am 14 17 mph 1022.7mb 49f 38f
5:54am 1 2 mph 1022.6mb 48f 40f
5:48am  -  2 mph 1022.6mb 48f 40f
4:54am 5 7 mph 1022.8mb 48f 39f
4:48am 6 8 mph 1022.6mb 48f 39f
2:36am 13 15 mph 1022.3mb 48f 41f
2:30am 10 14 mph 1022.3mb 48f 42f
2:24am 10 14 mph 1022.4mb 48f 42f
2:18am 14 23 mph 1022.4mb 48f 43f
2:12am 18 23 mph 1022.3mb 48f 44f
2:06am 15 16 mph 1022.3mb 48f 44f
2:00am 13 15 mph 1022.3mb 48f 44f
1:36am 13 14 mph 1022.2mb 48f 44f
1:30am 8 13 mph 1022.3mb 48f 43f
1:24am 13 22 mph 1022.3mb 48f 42f
1:18am 22 25 mph 1022.2mb 48f 42f
1:12am 16 24 mph 1022.2mb 48f 43f
1:06am 5 6 mph 1022.1mb 48f 42f
1:00am 6 8 mph 1022.2mb 48f 42f
12:36am 14 18 mph 1022.1mb 48f 42f
12:30am 17 22 mph 1022.1mb 48f 42f
12:24am 22 23 mph 1022mb 48f 43f
12:18am 13 14 mph 1021.9mb 48f 44f
12:12am 11 14 mph 1021.9mb 48f 44f
12:06am 14 16 mph 1022mb 48f 43f
12:00am 13 14 mph 1021.9mb 48f 44f
Tue 02/21 11:36pm 7 8 mph 1021.8mb 48f 43f
11:30pm 6 9 mph 1021.8mb 48f 42f
11:24pm 8 14 mph 1021.8mb 48f 41f
11:18pm 15 22 mph 1021.9mb 48f 41f
11:12pm 21 28 mph 1021.9mb 48f 41f
11:06pm 21 28 mph 1021.8mb 49f 42f
11:00pm 20 22 mph 1021.7mb 49f 42f
10:36pm 9 11 mph 1021.6mb 49f 44f
10:30pm 9 11 mph 1021.6mb 49f 44f
10:24pm 9 10 mph 1021.5mb 49f 44f
10:18pm 9 10 mph 1021.5mb 49f 43f
10:12pm 10 14 mph 1021.4mb 49f 43f
10:06pm 14 18 mph 1021.4mb 49f 43f
10:00pm 20 23 mph 1021.4mb 49f 44f
9:36pm 18 21 mph 1021.1mb 48f 44f
9:30pm 20 22 mph 1021mb 48f 44f
9:24pm 18 21 mph 1021mb 48f 45f
9:18pm 17 20 mph 1021mb 48f 45f
9:12pm 18 21 mph 1020.9mb 48f 44f
9:06pm 18 21 mph 1020.8mb 48f 44f
9:00pm 20 21 mph 1020.8mb 48f 44f
8:36pm 20 21 mph 1020.6mb 48f 45f
8:30pm 18 22 mph 1020.5mb 48f 45f
8:24pm 18 21 mph 1020.4mb 48f 45f
8:18pm 18 22 mph 1020.3mb 48f 45f
8:12pm 20 22 mph 1020.3mb 48f 45f
8:06pm 18 22 mph 1020.2mb 48f 45f
8:00pm 17 21 mph 1020.2mb 48f 45f
7:36pm 17 20 mph 1020.1mb 48f 45f
7:30pm 18 21 mph 1020.1mb 48f 45f
7:24pm 17 20 mph 1020.1mb 47f 45f
7:18pm 18 21 mph 1020mb 47f 45f
7:12pm 18 21 mph 1020mb 47f 45f
7:06pm 18 21 mph 1020mb 47f 45f
7:00pm 18 22 mph 1019.9mb 47f 45f
6:36pm 16 18 mph 1019.6mb 47f 45f
6:30pm 17 18 mph 1019.6mb 47f 45f
6:24pm 15 17 mph 1019.5mb 47f 45f
6:18pm 16 20 mph 1019.4mb 47f 45f
6:12pm 17 21 mph 1019.3mb 47f 45f
6:06pm 17 18 mph 1019.3mb 47f 45f
6:00pm 17 20 mph 1019.2mb 47f 45f
5:36pm 18 21 mph 1019mb 47f 45f
5:30pm 20 22 mph 1018.8mb 47f 45f
5:24pm 20 22 mph 1018.7mb 47f 45f
5:18pm 20 23 mph 1018.6mb 47f 46f
5:12pm 18 22 mph 1018.5mb 47f 46f
5:06pm 20 22 mph 1018.4mb 47f 46f
5:00pm 20 23 mph 1018.3mb 47f 46f
4:36pm 22 25 mph 1018.1mb 47f 46f
4:30pm 21 24 mph 1018mb 47f 46f
4:24pm 22 25 mph 1018mb 47f 46f
4:18pm 22 25 mph 1018mb 47f 46f
4:12pm 21 24 mph 1017.9mb 47f 46f
4:06pm 20 22 mph 1017.8mb 47f 46f
4:00pm 21 24 mph 1017.7mb 47f 46f
3:36pm 17 22 mph 1017.4mb 47f 46f
3:30pm 20 22 mph 1017.4mb 47f 46f
3:24pm 16 21 mph 1017.2mb 47f 46f
3:18pm 17 22 mph 1017.1mb 47f 46f
3:12pm 17 23 mph 1017mb 47f 46f
3:06pm 18 21 mph 1016.9mb 47f 46f
3:00pm 18 22 mph 1016.8mb 47f 46f
2:36pm 23 25 mph 1016.5mb 47f 46f
2:30pm 21 23 mph 1016.4mb 47f 47f
2:24pm 21 23 mph 1016.3mb 47f 47f
2:18pm 22 24 mph 1016.2mb 47f 46f
2:12pm 22 26 mph 1016.1mb 47f 46f
2:06pm 24 28 mph 1015.9mb 47f 47f
2:00pm 22 28 mph 1015.9mb 47f 46f
1:36pm 26 30 mph 1015.5mb 47f 46f
1:30pm 22 29 mph 1015.4mb 47f 46f
1:24pm 25 29 mph 1015.3mb 47f 46f
1:18pm 23 29 mph 1015.3mb 47f 46f
1:12pm 26 30 mph 1015.3mb 47f 46f
1:06pm 26 30 mph 1015.2mb 47f 46f
1:00pm 25 29 mph 1015.1mb 47f 46f
12:36pm 26 32 mph 1015mb 47f 46f
12:30pm 24 29 mph 1015mb 47f 46f
12:24pm 24 29 mph 1015mb 47f 46f
12:18pm 26 30 mph 1015mb 47f 46f
12:12pm 25 31 mph 1014.9mb 47f 46f
12:06pm 25 29 mph 1014.9mb 47f 46f
12:00pm 24 29 mph 1014.9mb 47f 46f
11:36am 25 29 mph 1014.5mb 47f 46f
11:30am 25 30 mph 1014.4mb 47f 46f
11:24am 26 29 mph 1014.3mb 47f 46f
11:18am 24 28 mph 1014.2mb 47f 46f
11:12am 22 25 mph 1014.1mb 47f 46f
11:06am 22 26 mph 1013.9mb 47f 46f
11:00am 20 26 mph 1013.9mb 47f 46f
10:36am 21 24 mph 1013.4mb 47f 45f
10:30am 20 24 mph 1013.3mb 47f 45f
10:24am 22 24 mph 1013.2mb 47f 45f
10:18am 16 18 mph 1013mb 47f 46f
10:12am 16 21 mph 1012.8mb 47f 45f
10:06am 13 17 mph 1012.7mb 47f 45f
10:00am 15 18 mph 1012.6mb 48f 46f
9:36am 13 16 mph 1012mb 48f 45f
9:30am 13 17 mph 1011.9mb 48f 46f
9:24am 13 17 mph 1011.8mb 48f 46f
9:18am 9 13 mph 1011.6mb 48f 46f
9:12am 10 11 mph 1011.5mb 48f 46f
9:06am 9 10 mph 1011.4mb 48f 45f
9:00am 8 11 mph 1011.2mb 48f 45f
8:36am 8 11 mph 1010.8mb 48f 43f
8:30am 9 10 mph 1010.6mb 48f 43f
8:24am 8 10 mph 1010.5mb 48f 43f
8:18am 8 11 mph 1010.4mb 48f 43f
8:12am 9 13 mph 1010.2mb 48f 43f
8:06am 14 21 mph 1010mb 48f 44f
8:00am 16 20 mph 1009.8mb 48f 44f
7:36am 7 9 mph 1009.3mb 48f 43f
7:30am 7 8 mph 1009.2mb 48f 43f
7:24am 6 8 mph 1009mb 48f 42f
7:18am 6
mph
1008.8mb 48f 42f
7:12am 6 7 mph 1008.7mb 48f 42f
7:06am 5 7 mph 1008.7mb 48f 42f
7:00am 6 8 mph 1008.6mb 48f 42f
6:36am 9 11 mph 1008.2mb 48f 42f
6:30am 10 11 mph 1008.1mb 48f 42f
6:24am 10 14 mph 1007.9mb 48f 42f
6:18am 11 14 mph 1007.8mb 48f 42f
6:12am 10 13 mph 1007.6mb 48f 42f
6:06am 10 13 mph 1007.6mb 48f 42f
6:00am 10 13 mph 1007.5mb 48f 42f
5:36am 9 11 mph 1007.3mb 47f 42f
5:30am 8 10 mph 1007.3mb 47f 42f
5:24am 9 11 mph 1007.2mb 47f 42f
5:18am 9 11 mph 1007.1mb 47f 42f
5:12am 8 11 mph 1007mb 47f 42f
5:06am 10 13 mph 1006.9mb 47f 42f
5:00am 9 13 mph 1006.9mb 47f 42f
4:36am 8 11 mph 1006.6mb 47f 42f
4:30am 9 11 mph 1006.6mb 47f 42f
4:24am 8 10 mph 1006.6mb 47f 42f
4:18am 9 11 mph 1006.5mb 47f 42f
4:12am 9 11 mph 1006.4mb 47f 42f
4:06am 10 11 mph 1006.4mb 47f 42f
4:00am 9 11 mph 1006.3mb 47f 42f
3:36am 10 13 mph 1006mb 47f 43f
3:30am 9 11 mph 1006mb 47f 43f
3:24am 10 13 mph 1006mb 47f 43f
3:18am 9 13 mph 1006mb 47f 43f
3:12am 11 14 mph 1006mb 47f 43f
3:06am 11 14 mph 1005.9mb 47f 43f
3:00am 11 14 mph 1005.9mb 47f 43f
2:54am 11 14 mph 1005.9mb 47f 43f
2:48am 11 14 mph 1006mb 47f 43f
2:36am 11 14 mph 1006mb 47f 43f
2:30am 11 14 mph 1006.1mb 47f 43f
2:24am 13 14 mph 1006.1mb 47f 43f
2:18am 10 11 mph 1006.1mb 48f 43f
2:12am 9 10 mph 1006.1mb 47f 43f
2:06am 8 10 mph 1006.2mb 47f 43f
2:00am 8 10 mph 1006.1mb 47f 43f
1:54am 8 10 mph 1006.2mb 47f 43f
1:48am 8 10 mph 1006.2mb 47f 43f
1:36am 8 10 mph 1006.2mb 47f 43f
1:30am 9 10 mph 1006.2mb 47f 43f
1:24am 8 10 mph 1006.2mb 47f 43f
1:18am 10 11 mph 1006.2mb 47f 43f
1:12am 9 11 mph 1006.1mb 48f 43f
1:06am 9 13 mph 1006.1mb 47f 43f
1:00am 11 13 mph 1006mb 47f 43f
12:54am 10 13 mph 1006mb 48f 43f
12:48am 10 13 mph 1005.9mb 48f 44f
12:36am 10 11 mph 1005.7mb 47f 44f
12:30am 9 11 mph 1005.6mb 47f 44f
12:24am 9 10 mph 1005.5mb 47f 44f
12:18am 7 9 mph 1005.4mb 47f 44f
12:12am 8 9 mph 1005.4mb 47f 44f
12:06am 9 10 mph 1005.5mb 47f 44f
12:00am 8 9 mph 1005.4mb 48f 44f
Mon 02/20 11:54pm 8 10 mph 1005.4mb 48f 44f
11:48pm 9 10 mph 1005.5mb 48f 44f
11:36pm 9 10 mph 1005.5mb 48f 44f
11:30pm 8 10 mph 1005.5mb 48f 44f
11:24pm 9 10 mph 1005.5mb 48f 44f
11:18pm 9 10 mph 1005.5mb 48f 44f
11:12pm 8 10 mph 1005.4mb 48f 44f
11:06pm 6 8 mph 1005.4mb 48f 44f
11:00pm 6 8 mph 1005.4mb 48f 44f
10:54pm 7 8 mph 1005.4mb 48f 44f
10:48pm 7 8 mph 1005.4mb 48f 44f
10:36pm 7 9 mph 1005.5mb 48f 44f
10:30pm 7 8 mph 1005.5mb 48f 44f
10:24pm 6 9 mph 1005.6mb 48f 44f
10:18pm 8 9 mph 1005.6mb 48f 44f
10:12pm 8 10 mph 1005.6mb 48f 44f
10:06pm 8 9 mph 1005.6mb 48f 44f
10:00pm 7 9 mph 1005.6mb 48f 44f
9:54pm 7 9 mph 1005.6mb 48f 45f
9:48pm 7 9 mph 1005.6mb 48f 45f
9:36pm 7 8 mph 1005.6mb 48f 45f
9:30pm 7 8 mph 1005.6mb 48f 44f
9:24pm 7 9 mph 1005.6mb 48f 44f
9:18pm 7 9 mph 1005.6mb 48f 44f
9:12pm 7 8 mph 1005.6mb 48f 44f
9:06pm 7 8 mph 1005.6mb 48f 44f
9:00pm 6 7 mph 1005.5mb 48f 45f
8:54pm 6 7 mph 1005.4mb 48f 44f
8:48pm 6
mph
1005.5mb 48f 44f
8:36pm 6 7 mph 1005.4mb 48f 44f
8:30pm 6 8 mph 1005.4mb 48f 44f
8:24pm 6 8 mph 1005.4mb 48f 45f
8:18pm 7 8 mph 1005.4mb 48f 44f
8:12pm 7 8 mph 1005.3mb 48f 44f
8:06pm 8
mph
1005.3mb 48f 44f
8:00pm 6 8 mph 1005.3mb 48f 45f
7:54pm 5 7 mph 1005.3mb 48f 44f
7:48pm 5 7 mph 1005.2mb 48f 44f
7:36pm 7 8 mph 1005.3mb 48f 44f
7:30pm 6 7 mph 1005.4mb 47f 44f
7:24pm 5 6 mph 1005.4mb 47f 44f
7:18pm 5 6 mph 1005.4mb 47f 44f
7:12pm 5
mph
1005.4mb 47f 44f
7:06pm 3
mph
1005.3mb 47f 44f
7:00pm 3
mph
1005.3mb 47f 44f
6:54pm 2
mph
1005.3mb 47f 44f
6:48pm 2 3 mph 1005.3mb 47f 44f
6:36pm 5
mph
1005.4mb 47f 44f
6:30pm 5 6 mph 1005.4mb 47f 44f
6:24pm 3 6 mph 1005.4mb 47f 44f
6:18pm 5 6 mph 1005.3mb 47f 44f
6:12pm 5 6 mph 1005.3mb 47f 45f
6:06pm 5 6 mph 1005.2mb 47f 44f
6:00pm 5 6 mph 1005.2mb 47f 45f
5:54pm 5 6 mph 1005.2mb 47f 45f
5:48pm 5 7 mph 1005.2mb 47f 45f
5:36pm 3 5 mph 1005.3mb 47f 45f
5:30pm 5
mph
1005.3mb 47f 45f
5:24pm 5 7 mph 1005.3mb 47f 45f
5:18pm 5 8 mph 1005.3mb 47f 45f
5:12pm 5 7 mph 1005.3mb 47f 45f
5:06pm 5 7 mph 1005.2mb 47f 45f
5:00pm 6 8 mph 1005.2mb 47f 45f
4:54pm 6 8 mph 1005.2mb 47f 45f
4:48pm 6 8 mph 1005.2mb 47f 45f
4:36pm 6 8 mph 1005.2mb 47f 45f
4:30pm 7 9 mph 1005.2mb 47f 45f
4:24pm 6 8 mph 1005.2mb 47f 45f
4:18pm 6 9 mph 1005.1mb 47f 45f
4:12pm 5 8 mph 1005mb 47f 45f
4:06pm 6 9 mph 1004.9mb 47f 45f
4:00pm 6 8 mph 1004.9mb 47f 45f
3:54pm 6 8 mph 1004.8mb 47f 45f
3:48pm 7 9 mph 1004.8mb 47f 45f
3:36pm 7 10 mph 1004.8mb 47f 45f
3:30pm 7 11 mph 1004.7mb 47f 45f
3:24pm 8 11 mph 1004.7mb 47f 45f
3:18pm 8 11 mph 1004.6mb 47f 45f
3:12pm 7 10 mph 1004.5mb 47f 45f
3:06pm 6 10 mph 1004.4mb 47f 45f
3:00pm 8 11 mph 1004.3mb 47f 45f
2:54pm 8 11 mph 1004.2mb 47f 45f
2:48pm 7 11 mph 1004.2mb 47f 45f
2:36pm 9 13 mph 1004.1mb 47f 45f
2:30pm 10 14 mph 1004.1mb 47f 45f
2:24pm 9 13 mph 1004mb 47f 46f
2:18pm 10 13 mph 1003.8mb 47f 45f
2:12pm 9 13 mph 1003.7mb 47f 45f
2:06pm 9 11 mph 1003.6mb 47f 45f
2:00pm 6 10 mph 1003.6mb 47f 46f
1:54pm 7 9 mph 1003.6mb 47f 46f
1:48pm 8 10 mph 1003.6mb 47f 45f
1:36pm 7 9 mph 1003.5mb 47f 45f
1:30pm 7 10 mph 1003.5mb 47f 45f
1:24pm 7 10 mph 1003.4mb 47f 45f
1:18pm 6 8 mph 1003.3mb 47f 45f
1:12pm 7 9 mph 1003.3mb 47f 45f
1:06pm 6 7 mph 1003.2mb 47f 45f
1:00pm 6 7 mph 1003.1mb 47f 45f
12:54pm 6 7 mph 1003mb 47f 45f
12:48pm 3 5 mph 1002.9mb 47f 45f
12:36pm 3 5 mph 1002.8mb 47f 44f
12:30pm 3 7 mph 1002.7mb 47f 45f
12:24pm 2 3 mph 1002.6mb 47f 44f
12:18pm 2 3 mph 1002.4mb 47f 45f
12:12pm 2 3 mph 1002.4mb 47f 45f
12:06pm  -  3 mph 1002.4mb 47f 44f
12:00pm 2 3 mph 1002.3mb 47f 44f
11:54am 1 3 mph 1002.2mb 48f 44f
11:48am 2 3 mph 1002mb 48f 44f
11:36am 1 2 mph 1001.7mb 48f 45f
11:30am 2 3 mph 1001.6mb 48f 45f
11:24am 1 2 mph 1001.5mb 48f 44f
11:18am  -  2 mph 1001.3mb 48f 45f
11:12am 1 2 mph 1001.1mb 48f 45f
11:06am 1 3 mph 1001mb 48f 44f
11:00am 2 3 mph 1000.8mb 48f 44f
10:36am 2 5 mph 1000mb 48f 44f
10:30am 3 5 mph 999.8mb 48f 44f
10:24am 5 6 mph 999.6mb 48f 44f
10:18am 3 6 mph 999.5mb 48f 44f
10:12am 3 6 mph 999.4mb 48f 44f
10:06am 7 8 mph 999.3mb 48f 43f
10:00am 5 7 mph 999.2mb 48f 43f
9:54am 6 8 mph 999mb 48f 43f
9:48am 3 7 mph 998.9mb 48f 43f
9:36am 7 8 mph 998.8mb 48f 43f
9:30am 6 9 mph 998.7mb 48f 43f
9:24am 6 8 mph 998.6mb 48f 43f
9:18am 8 10 mph 998.5mb 48f 42f
9:12am 9 11 mph 998.4mb 48f 42f
9:06am 9 13 mph 998.4mb 48f 42f
9:00am 11 14 mph 998.4mb 48f 42f
8:54am 10 14 mph 998.3mb 48f 42f
8:48am 9 15 mph 998.3mb 48f 42f
8:36am 11 15 mph 998.3mb 48f 42f
8:30am 13 16 mph 998.2mb 48f 42f
8:24am 13 17 mph 998.2mb 48f 42f
8:18am 13 17 mph 998.1mb 48f 42f
8:12am 15 18 mph 998mb 48f 42f
8:06am 14 17 mph 997.9mb 48f 42f
8:00am 13 18 mph 997.8mb 48f 42f
7:54am 16 18 mph 997.8mb 48f 42f
7:48am 14 18 mph 997.8mb 48f 42f
7:36am 15 17 mph 997.8mb 48f 42f
7:30am 14 17 mph 997.8mb 48f 42f
7:24am 14 16 mph 997.7mb 48f 42f
7:18am 11 16 mph 997.7mb 48f 42f
7:12am 16 20 mph 997.7mb 48f 42f
7:06am 14 18 mph 997.7mb 48f 42f
7:00am 14 18 mph 997.7mb 48f 42f
6:54am 10 17 mph 997.7mb 48f 42f
6:48am 14 18 mph 997.7mb 48f 42f
6:36am 17 21 mph 997.6mb 48f 42f
6:30am 14 18 mph 997.7mb 48f 42f
6:24am 15 18 mph 997.7mb 48f 42f
6:18am 14 16 mph 997.7mb 48f 42f
6:12am 10 14 mph 997.8mb 48f 42f
6:06am 9 14 mph 997.9mb 48f 42f
6:00am 8 13 mph 998mb 48f 42f
5:54am 11 14 mph 998.1mb 48f 42f
5:48am 10 13 mph 998.1mb 48f 42f
5:36am 11 13 mph 998.2mb 48f 42f
5:30am 10 13 mph 998.3mb 48f 42f
5:24am 10 13 mph 998.3mb 48f 42f
5:18am 9 11 mph 998.3mb 48f 42f
5:12am 8 11 mph 998.3mb 48f 42f
5:06am 10 11 mph 998.3mb 48f 42f
5:00am 9 11 mph 998.4mb 48f 42f
4:54am 9 14 mph 998.4mb 48f 42f
4:48am 11 15 mph 998.5mb 48f 42f
4:36am 14 17 mph 998.5mb 48f 42f
4:30am 13 17 mph 998.6mb 48f 42f
4:24am 14 17 mph 998.5mb 48f 42f
4:18am 13 16 mph 998.6mb 48f 42f
4:12am 13 18 mph 998.6mb 48f 42f
4:06am 11 15 mph 998.7mb 48f 42f
4:00am 9 14 mph 998.8mb 48f 42f
3:54am 13 14 mph 998.8mb 48f 42f
3:48am 10 15 mph 998.9mb 48f 42f
3:36am 7 10 mph 999.2mb 48f 42f
3:30am 9 11 mph 999.3mb 47f 42f
3:24am 10 13 mph 999.3mb 47f 42f
3:18am 9 11 mph 999.4mb 47f 42f
3:12am 11 13 mph 999.5mb 47f 42f
3:06am 9 13 mph 999.7mb 48f 42f
3:00am 10 13 mph 999.8mb 48f 42f
2:54am 11 13 mph 999.9mb 48f 42f
2:48am 9 11 mph 1000mb 48f 42f
2:36am 9 11 mph 1000.2mb 48f 42f
2:30am 10 11 mph 1000.3mb 48f 42f
2:24am 9 11 mph 1000.3mb 48f 42f
2:18am 9 11 mph 1000.5mb 48f 42f
2:12am 8 9 mph 1000.6mb 48f 42f
2:06am 8 10 mph 1000.7mb 47f 42f
2:00am 9 10 mph 1000.7mb 47f 42f
1:54am 8 10 mph 1000.7mb 47f 42f
1:48am 8 10 mph 1000.7mb 48f 42f
1:36am 8
mph
1001mb 48f 42f
1:30am 7 9 mph 1001mb 48f 42f
1:24am 7 9 mph 1001mb 48f 42f
1:18am 7 8 mph 1001mb 48f 42f
1:12am 7 9 mph 1001mb 48f 43f
1:06am 8 9 mph 1001mb 48f 43f
1:00am 6 7 mph 1001.1mb 48f 43f
12:54am 6
mph
1001mb 48f 43f
12:48am 6 7 mph 1001mb 48f 43f
12:36am 7 9 mph 1001.2mb 48f 43f
12:30am 6 8 mph 1001.3mb 48f 43f
12:24am 7 8 mph 1001.4mb 48f 43f
12:18am 5 6 mph 1001.4mb 48f 43f
12:12am 3 7 mph 1001.4mb 48f 43f
12:06am 6 9 mph 1001.4mb 48f 43f
12:00am 5 9 mph 1001.4mb 48f 43f
Sun 02/19 11:54pm 7 10 mph 1001.5mb 48f 43f
11:48pm 8 10 mph 1001.6mb 48f 43f
11:36pm 6 9 mph 1001.7mb 48f 43f
11:30pm 7 8 mph 1001.7mb 48f 43f